createdAt,value
2023-05-05T00:01:11.583Z,2.65
2023-05-05T00:03:38.098Z,2.10
2023-05-05T00:06:05.524Z,2.70
2023-05-05T00:08:32.111Z,3.10
2023-05-05T00:10:58.663Z,2.83
2023-05-05T00:13:25.297Z,2.20
2023-05-05T00:15:53.547Z,2.67
2023-05-05T00:18:20.983Z,3.95
2023-05-05T00:20:48.125Z,2.60
2023-05-05T00:23:15.991Z,3.17
2023-05-05T00:25:42.550Z,2.40
2023-05-05T00:28:09.037Z,2.47
2023-05-05T00:30:37.218Z,2.45
2023-05-05T00:33:03.860Z,2.30
2023-05-05T00:35:30.528Z,2.55
2023-05-05T00:37:57.037Z,2.45
2023-05-05T00:40:25.042Z,2.60
2023-05-05T00:42:52.157Z,2.55
2023-05-05T00:45:20.287Z,2.60
2023-05-05T00:47:51.139Z,2.80
2023-05-05T00:50:26.358Z,2.92
2023-05-05T00:52:54.520Z,2.70
2023-05-05T00:55:21.583Z,2.40
2023-05-05T00:57:49.480Z,2.83
2023-05-05T01:00:16.716Z,2.63
2023-05-05T01:02:44.039Z,2.22
2023-05-05T01:05:11.474Z,2.72
2023-05-05T01:07:43.696Z,2.60
2023-05-05T01:10:23.741Z,2.70
2023-05-05T01:12:53.131Z,3.55
2023-05-05T01:15:33.404Z,2.78
2023-05-05T01:18:24.223Z,2.50
2023-05-05T01:20:57.591Z,2.53
2023-05-05T01:23:43.145Z,2.50
2023-05-05T01:26:24.429Z,2.70
2023-05-05T01:29:07.715Z,2.45
2023-05-05T01:31:43.859Z,2.72
2023-05-05T01:34:16.109Z,2.75
2023-05-05T01:36:49.365Z,2.70
2023-05-05T01:39:18.361Z,2.25
2023-05-05T01:41:51.016Z,2.38
2023-05-05T01:44:19.834Z,2.92
2023-05-05T01:46:48.752Z,2.30
2023-05-05T01:49:16.281Z,2.17
2023-05-05T01:51:45.774Z,2.35
2023-05-05T01:54:15.105Z,2.65
2023-05-05T01:56:43.246Z,2.20
2023-05-05T01:59:10.395Z,2.33
2023-05-05T02:01:41.300Z,2.60
2023-05-05T02:04:09.760Z,2.15
2023-05-05T02:06:39.194Z,2.45
2023-05-05T02:09:08.276Z,2.50
2023-05-05T02:11:34.836Z,2.72
2023-05-05T02:14:02.257Z,2.30
2023-05-05T02:16:31.039Z,2.17
2023-05-05T02:19:01.156Z,2.67
2023-05-05T02:21:28.515Z,2.55
2023-05-05T02:23:55.601Z,2.63
2023-05-05T02:26:24.113Z,2.50
2023-05-05T02:29:03.886Z,2.53
2023-05-05T02:31:33.048Z,2.53
2023-05-05T02:34:01.954Z,3.30
2023-05-05T02:36:32.485Z,2.72
2023-05-05T02:39:07.194Z,2.50
2023-05-05T02:41:38.070Z,2.63
2023-05-05T02:44:06.631Z,2.55
2023-05-05T02:46:33.614Z,2.60
2023-05-05T02:49:00.219Z,2.75
2023-05-05T02:51:27.597Z,3.13
2023-05-05T02:53:54.418Z,2.58
2023-05-05T02:56:48.881Z,2.67
2023-05-05T03:02:08.070Z,2.83
2023-05-05T03:04:46.959Z,2.53
2023-05-05T03:07:21.907Z,2.70
2023-05-05T03:10:09.201Z,3.00
2023-05-05T03:13:01.577Z,2.67
2023-05-05T03:15:34.200Z,2.80
2023-05-05T03:18:03.070Z,2.80
2023-05-05T03:20:30.398Z,2.88
2023-05-05T03:22:57.146Z,2.75
2023-05-05T03:25:41.448Z,2.83
2023-05-05T03:28:07.912Z,3.25
2023-05-05T03:30:34.676Z,2.45
2023-05-05T03:33:01.404Z,2.70
2023-05-05T03:35:28.280Z,2.60
2023-05-05T03:37:55.676Z,2.42
2023-05-05T03:40:36.358Z,3.05
2023-05-05T03:43:09.864Z,2.90
2023-05-05T03:45:36.368Z,3.33
2023-05-05T03:48:03.059Z,2.85
2023-05-05T03:50:29.583Z,2.53
2023-05-05T03:52:56.127Z,3.05
2023-05-05T03:55:22.700Z,2.95
2023-05-05T03:57:49.185Z,3.17
2023-05-05T04:00:16.910Z,2.33
2023-05-05T04:02:43.535Z,3.13
2023-05-05T04:05:10.205Z,2.85
2023-05-05T04:07:36.683Z,2.72
2023-05-05T04:10:03.741Z,2.70
2023-05-05T04:12:30.295Z,3.58
2023-05-05T04:14:56.877Z,2.58
2023-05-05T04:17:23.364Z,2.72
2023-05-05T04:19:49.820Z,2.60
2023-05-05T04:22:16.647Z,2.25
2023-05-05T04:24:43.127Z,2.90
2023-05-05T04:27:09.674Z,2.63
2023-05-05T04:29:36.149Z,2.63
2023-05-05T04:32:02.636Z,2.60
2023-05-05T04:34:30.453Z,2.83
2023-05-05T04:36:57.113Z,2.60
2023-05-05T04:39:23.574Z,2.60
2023-05-05T04:41:50.061Z,2.65
2023-05-05T04:44:17.240Z,2.50
2023-05-05T04:46:44.798Z,2.30
2023-05-05T04:49:11.435Z,2.60
2023-05-05T04:51:41.454Z,2.53
2023-05-05T04:54:08.321Z,3.13
2023-05-05T04:56:34.797Z,2.40
2023-05-05T04:59:01.298Z,2.47
2023-05-05T05:01:27.837Z,2.78
2023-05-05T05:03:54.400Z,2.47
2023-05-05T05:06:21.022Z,2.78
2023-05-05T05:08:47.560Z,3.05
2023-05-05T05:11:14.087Z,3.28
2023-05-05T05:13:41.536Z,2.38
2023-05-05T05:16:08.142Z,2.58
2023-05-05T05:18:34.649Z,2.60
2023-05-05T05:21:01.363Z,2.40
2023-05-05T05:23:27.844Z,2.58
2023-05-05T05:25:54.529Z,2.50
2023-05-05T05:28:21.041Z,2.45
2023-05-05T05:30:47.712Z,2.45
2023-05-05T05:33:14.510Z,2.83
2023-05-05T05:35:41.276Z,2.88
2023-05-05T05:38:07.943Z,2.75
2023-05-05T05:40:34.437Z,2.75
2023-05-05T05:43:01.052Z,2.58
2023-05-05T05:45:27.555Z,2.75
2023-05-05T05:47:54.184Z,2.67
2023-05-05T05:50:21.405Z,2.63
2023-05-05T05:52:47.921Z,2.67
2023-05-05T05:55:14.393Z,2.50
2023-05-05T05:57:40.867Z,2.58
2023-05-05T06:00:08.126Z,2.90
2023-05-05T06:02:34.919Z,2.70
2023-05-05T06:05:01.476Z,2.83
2023-05-05T06:07:28.033Z,3.70
2023-05-05T06:09:54.529Z,2.70
2023-05-05T06:12:21.065Z,2.42
2023-05-05T06:14:47.545Z,2.78
2023-05-05T06:17:14.007Z,3.00
2023-05-05T06:19:41.012Z,2.55
2023-05-05T06:22:07.483Z,2.55
2023-05-05T06:24:34.014Z,2.80
2023-05-05T06:27:00.719Z,2.65
2023-05-05T06:29:28.022Z,2.65
2023-05-05T06:31:55.066Z,3.15
2023-05-05T06:34:21.585Z,2.72
2023-05-05T06:36:48.204Z,2.50
2023-05-05T06:39:15.902Z,2.50
2023-05-05T06:41:42.779Z,2.58
2023-05-05T06:44:10.540Z,2.53
2023-05-05T06:46:37.179Z,2.80
2023-05-05T06:49:03.763Z,2.30
2023-05-05T06:51:31.237Z,2.90
2023-05-05T06:53:57.751Z,3.10
2023-05-05T06:56:24.220Z,2.90
2023-05-05T06:58:50.704Z,2.72
2023-05-05T07:01:17.259Z,3.42
2023-05-05T07:03:44.715Z,3.47
2023-05-05T07:06:11.277Z,3.08
2023-05-05T07:08:37.767Z,3.30
2023-05-05T07:11:04.299Z,3.08
2023-05-05T07:13:30.800Z,3.20
2023-05-05T07:15:57.412Z,2.78
2023-05-05T07:18:23.926Z,3.20
2023-05-05T07:20:50.413Z,3.05
2023-05-05T07:23:17.061Z,3.30
2023-05-05T07:25:43.907Z,2.95
2023-05-05T07:28:10.878Z,3.17
2023-05-05T07:30:37.344Z,2.90
2023-05-05T07:33:03.984Z,2.78
2023-05-05T07:35:30.915Z,3.78
2023-05-05T07:37:57.797Z,3.08
2023-05-05T07:40:24.633Z,3.30
2023-05-05T07:42:51.747Z,2.92
2023-05-05T07:45:18.615Z,3.30
2023-05-05T07:47:45.432Z,3.70
2023-05-05T07:50:12.286Z,3.25
2023-05-05T07:55:08.761Z,3.20
2023-05-05T07:57:35.468Z,3.22
2023-05-05T08:00:02.350Z,3.65
2023-05-05T08:02:29.170Z,3.60
2023-05-05T08:04:55.904Z,3.55
2023-05-05T08:07:22.941Z,3.65
2023-05-05T08:09:49.614Z,3.92
2023-05-05T08:12:18.965Z,3.40
2023-05-05T08:14:45.724Z,3.70
2023-05-05T08:17:12.190Z,3.42
2023-05-05T08:19:38.796Z,4.40
2023-05-05T08:22:05.278Z,3.85
2023-05-05T08:24:31.736Z,3.20
2023-05-05T08:26:58.323Z,3.72
2023-05-05T08:29:24.816Z,3.60
2023-05-05T08:31:51.694Z,3.67
2023-05-05T08:34:18.285Z,3.30
2023-05-05T08:36:44.788Z,3.65
2023-05-05T08:39:11.531Z,3.63
2023-05-05T08:41:38.009Z,3.75
2023-05-05T08:44:04.548Z,3.08
2023-05-05T08:46:31.401Z,3.38
2023-05-05T08:48:58.759Z,3.38
2023-05-05T08:51:28.428Z,3.17
2023-05-05T08:53:57.869Z,3.53
2023-05-05T08:56:38.804Z,3.88
2023-05-05T08:59:05.371Z,4.03
2023-05-05T09:01:33.140Z,3.50
2023-05-05T09:03:59.997Z,3.75
2023-05-05T09:06:27.414Z,3.90
2023-05-05T09:08:54.095Z,3.30
2023-05-05T09:11:21.569Z,3.35
2023-05-05T09:13:48.344Z,3.65
2023-05-05T09:16:14.947Z,3.70
2023-05-05T09:18:42.601Z,3.50
2023-05-05T09:21:24.585Z,5.28
2023-05-05T09:24:08.594Z,3.53
2023-05-05T09:26:37.929Z,3.65
2023-05-05T09:29:05.804Z,3.55
2023-05-05T09:31:33.975Z,3.17
2023-05-05T09:34:00.916Z,3.63
2023-05-05T09:36:43.305Z,3.58
2023-05-05T09:39:10.094Z,3.53
2023-05-05T09:41:37.904Z,3.25
2023-05-05T09:44:04.574Z,3.40
2023-05-05T09:46:31.331Z,3.58
2023-05-05T09:49:12.326Z,3.70
2023-05-05T09:51:39.059Z,3.20
2023-05-05T09:54:05.542Z,3.50
2023-05-05T09:56:41.182Z,3.28
2023-05-05T09:59:08.909Z,3.00
2023-05-05T10:01:35.448Z,3.63
2023-05-05T10:04:02.200Z,3.40
2023-05-05T10:06:44.218Z,3.20
2023-05-05T10:09:11.000Z,3.53
2023-05-05T10:11:40.418Z,3.30
2023-05-05T10:14:07.840Z,2.80
2023-05-05T10:16:36.009Z,3.28
2023-05-05T10:19:04.168Z,3.05
2023-05-05T10:21:37.432Z,3.03
2023-05-05T10:24:11.682Z,3.10
2023-05-05T10:26:41.460Z,3.17
2023-05-05T10:29:23.300Z,3.08
2023-05-05T10:34:40.645Z,3.08
2023-05-05T10:37:07.578Z,3.25
2023-05-05T10:39:37.742Z,3.20
2023-05-05T10:42:04.763Z,3.10
2023-05-05T10:44:34.785Z,3.58
2023-05-05T10:47:01.976Z,3.08
2023-05-05T10:49:54.925Z,3.08
2023-05-05T10:52:30.398Z,3.05
2023-05-05T10:55:12.842Z,3.10
2023-05-05T10:57:44.261Z,3.75
2023-05-05T11:00:36.832Z,3.00
2023-05-05T11:03:18.513Z,2.80
2023-05-05T11:08:32.581Z,3.78
2023-05-05T11:10:59.821Z,2.95
2023-05-05T11:13:27.129Z,3.08
2023-05-05T11:15:55.975Z,3.03
2023-05-05T11:18:36.141Z,3.10
2023-05-05T11:21:15.655Z,3.10
2023-05-05T11:23:47.030Z,3.28
2023-05-05T11:26:15.261Z,3.03
2023-05-05T11:28:56.679Z,3.13
2023-05-05T11:31:23.248Z,3.17
2023-05-05T11:33:49.865Z,2.85
2023-05-05T11:36:18.411Z,3.17
2023-05-05T11:39:09.120Z,3.28
2023-05-05T11:42:25.513Z,3.40
2023-05-05T11:44:52.789Z,2.80
2023-05-05T11:47:19.190Z,2.75
2023-05-05T11:49:45.806Z,3.20
2023-05-05T11:52:14.571Z,2.88
2023-05-05T11:54:50.021Z,3.20
2023-05-05T11:57:21.048Z,2.90
2023-05-05T11:59:55.198Z,2.88
2023-05-05T12:02:22.767Z,2.70
2023-05-05T12:04:49.767Z,3.05
2023-05-05T12:07:17.822Z,2.70
2023-05-05T12:09:45.950Z,3.10
2023-05-05T12:12:13.801Z,2.80
2023-05-05T12:14:54.762Z,3.13
2023-05-05T12:17:25.659Z,3.15
2023-05-05T12:19:57.604Z,2.75
2023-05-05T12:22:25.681Z,2.97
2023-05-05T12:24:57.234Z,2.97
2023-05-05T12:27:24.687Z,2.97
2023-05-05T12:29:51.905Z,3.08
2023-05-05T12:32:21.031Z,3.25
2023-05-05T12:34:48.511Z,3.22
2023-05-05T12:37:16.811Z,3.20
2023-05-05T12:39:43.281Z,2.97
2023-05-05T12:42:09.869Z,2.80
2023-05-05T12:44:40.084Z,2.97
2023-05-05T12:47:07.078Z,2.80
2023-05-05T12:49:50.087Z,2.95
2023-05-05T12:52:16.910Z,3.28
2023-05-05T12:54:57.061Z,3.28
2023-05-05T12:57:23.961Z,2.92
2023-05-05T12:59:51.629Z,2.90
2023-05-05T13:02:18.953Z,3.60
2023-05-05T13:04:53.338Z,3.30
2023-05-05T13:07:21.771Z,2.90
2023-05-05T13:09:49.798Z,2.63
2023-05-05T13:12:21.065Z,2.90
2023-05-05T13:14:48.478Z,3.20
2023-05-05T13:17:15.234Z,3.08
2023-05-05T13:19:42.692Z,3.05
2023-05-05T13:22:13.001Z,3.30
2023-05-05T13:24:50.928Z,3.45
2023-05-05T13:27:19.030Z,2.90
2023-05-05T13:29:45.892Z,3.13
2023-05-05T13:32:12.513Z,3.97
2023-05-05T13:34:39.266Z,3.28
2023-05-05T13:37:06.153Z,2.92
2023-05-05T13:39:32.680Z,3.03
2023-05-05T13:41:59.215Z,2.97
2023-05-05T13:44:25.739Z,2.90
2023-05-05T13:46:52.453Z,3.00
2023-05-05T13:49:20.024Z,3.20
2023-05-05T13:51:46.909Z,2.97
2023-05-05T13:54:13.826Z,2.90
2023-05-05T13:56:40.660Z,2.92
2023-05-05T13:59:07.300Z,2.95
2023-05-05T14:01:33.873Z,3.22
2023-05-05T14:04:03.672Z,2.67
2023-05-05T14:06:32.567Z,3.20
2023-05-05T14:08:59.195Z,2.80
2023-05-05T14:11:25.692Z,3.33
2023-05-05T14:13:52.699Z,2.80
2023-05-05T14:16:19.226Z,3.13
2023-05-05T14:18:45.767Z,3.00
2023-05-05T14:21:12.263Z,2.95
2023-05-05T14:23:38.779Z,2.80
2023-05-05T14:26:05.360Z,2.90
2023-05-05T14:28:31.908Z,2.90
2023-05-05T14:30:58.433Z,2.80
2023-05-05T14:33:24.983Z,3.20
2023-05-05T14:35:51.976Z,3.25
2023-05-05T14:38:18.478Z,3.25
2023-05-05T14:40:45.006Z,3.03
2023-05-05T14:43:11.501Z,2.90
2023-05-05T14:45:38.073Z,3.03
2023-05-05T14:48:04.613Z,3.10
2023-05-05T14:50:31.220Z,2.90
2023-05-05T14:52:57.754Z,2.80
2023-05-05T14:55:24.973Z,2.88
2023-05-05T14:57:51.887Z,4.13
2023-05-05T15:00:18.730Z,3.13
2023-05-05T15:02:45.400Z,3.00
2023-05-05T15:05:12.313Z,3.10
2023-05-05T15:07:39.975Z,5.20
2023-05-05T15:10:07.559Z,2.90
2023-05-05T15:12:34.295Z,4.30
2023-05-05T15:15:00.851Z,3.17
2023-05-05T15:17:27.461Z,3.15
2023-05-05T15:19:54.148Z,3.10
2023-05-05T15:22:20.913Z,3.08
2023-05-05T15:24:47.608Z,3.63
2023-05-05T15:27:14.385Z,2.90
2023-05-05T15:29:41.028Z,3.25
2023-05-05T15:32:07.793Z,3.63
2023-05-05T15:34:34.328Z,3.13
2023-05-05T15:37:01.061Z,3.13
2023-05-05T15:39:27.570Z,3.30
2023-05-05T15:41:54.091Z,3.50
2023-05-05T15:44:20.648Z,3.03
2023-05-05T15:46:49.737Z,3.40
2023-05-05T15:49:16.921Z,3.75
2023-05-05T15:51:43.558Z,3.45
2023-05-05T15:54:11.044Z,3.13
2023-05-05T15:56:37.678Z,3.05
2023-05-05T15:59:04.196Z,3.63
2023-05-05T16:01:30.818Z,4.10
2023-05-05T16:03:57.821Z,3.15
2023-05-05T16:06:24.412Z,4.07
2023-05-05T16:08:51.771Z,3.40
2023-05-05T16:11:19.964Z,3.10
2023-05-05T16:16:14.207Z,3.15
2023-05-05T16:18:40.772Z,3.08
2023-05-05T16:21:07.232Z,3.78
2023-05-05T16:23:33.734Z,3.33
2023-05-05T16:26:00.210Z,3.28
2023-05-05T16:28:26.959Z,3.50
2023-05-05T16:30:53.433Z,3.58
2023-05-05T16:33:19.900Z,3.28
2023-05-05T16:35:46.442Z,4.25
2023-05-05T16:38:13.411Z,3.17
2023-05-05T16:40:40.244Z,3.30
2023-05-05T16:43:06.778Z,3.10
2023-05-05T16:45:33.264Z,3.53
2023-05-05T16:47:59.832Z,3.60
2023-05-05T16:50:26.757Z,3.17
2023-05-05T16:52:53.241Z,3.28
2023-05-05T16:55:19.853Z,3.08
2023-05-05T16:57:47.785Z,3.67
2023-05-05T17:00:14.622Z,3.35
2023-05-05T17:02:41.174Z,3.45
2023-05-05T17:05:08.172Z,3.33
2023-05-05T17:07:35.074Z,3.22
2023-05-05T17:10:01.639Z,3.22
2023-05-05T17:12:28.342Z,3.92
2023-05-05T17:14:54.886Z,3.60
2023-05-05T17:17:21.421Z,3.45
2023-05-05T17:19:47.902Z,3.45
2023-05-05T17:22:14.394Z,3.50
2023-05-05T17:24:40.955Z,3.50
2023-05-05T17:27:07.498Z,3.40
2023-05-05T17:29:40.176Z,3.20
2023-05-05T17:32:07.768Z,3.47
2023-05-05T17:34:34.645Z,3.30
2023-05-05T17:37:01.858Z,3.35
2023-05-05T17:39:28.859Z,3.10
2023-05-05T17:41:55.671Z,2.92
2023-05-05T17:44:22.242Z,3.40
2023-05-05T17:46:48.885Z,3.20
2023-05-05T17:49:16.237Z,3.15
2023-05-05T17:51:42.685Z,3.15
2023-05-05T17:54:09.336Z,3.15
2023-05-05T17:56:36.713Z,3.13
2023-05-05T17:59:03.261Z,3.45
2023-05-05T18:01:29.857Z,3.63
2023-05-05T18:03:57.445Z,3.42
2023-05-05T18:06:23.996Z,3.83
2023-05-05T18:08:50.482Z,3.63
2023-05-05T18:11:17.126Z,4.22
2023-05-05T18:13:43.622Z,3.47
2023-05-05T18:16:10.282Z,3.47
2023-05-05T18:18:36.900Z,2.97
2023-05-05T18:21:03.479Z,2.97
2023-05-05T18:23:29.996Z,3.03
2023-05-05T18:25:56.536Z,3.88
2023-05-05T18:28:23.178Z,3.60
2023-05-05T18:30:49.691Z,3.20
2023-05-05T18:33:16.195Z,3.28
2023-05-05T18:35:42.704Z,3.92
2023-05-05T18:38:09.220Z,3.38
2023-05-05T18:40:35.710Z,3.35
2023-05-05T18:43:02.279Z,4.18
2023-05-05T18:45:28.848Z,3.40
2023-05-05T18:47:56.313Z,3.60
2023-05-05T18:50:23.088Z,3.97
2023-05-05T18:52:49.557Z,3.53
2023-05-05T18:55:16.058Z,3.70
2023-05-05T18:57:42.665Z,3.45
2023-05-05T19:00:10.085Z,3.55
2023-05-05T19:02:36.890Z,4.10
2023-05-05T19:05:03.770Z,3.97
2023-05-05T19:07:35.315Z,4.07
2023-05-05T19:10:04.479Z,4.00
2023-05-05T19:12:31.054Z,4.03
2023-05-05T19:14:57.861Z,3.78
2023-05-05T19:17:25.435Z,3.97
2023-05-05T19:19:52.175Z,3.45
2023-05-05T19:22:20.478Z,5.07
2023-05-05T19:24:47.052Z,5.72
2023-05-05T19:27:16.415Z,4.47
2023-05-05T19:29:43.566Z,5.50
2023-05-05T19:32:10.149Z,4.30
2023-05-05T19:34:36.903Z,4.55
2023-05-05T19:37:03.414Z,4.90
2023-05-05T19:39:30.029Z,4.22
2023-05-05T19:41:56.718Z,5.25
2023-05-05T19:44:23.756Z,4.57
2023-05-05T19:46:51.760Z,4.93
2023-05-05T19:49:18.465Z,4.45
2023-05-05T19:51:47.474Z,3.97
2023-05-05T19:54:14.175Z,4.53
2023-05-05T19:56:40.872Z,4.55
2023-05-05T19:59:07.519Z,4.30
2023-05-05T20:01:34.931Z,3.70
2023-05-05T20:04:03.121Z,3.95
2023-05-05T20:06:29.803Z,4.45
2023-05-05T20:08:56.502Z,3.50
2023-05-05T20:11:23.258Z,4.60
2023-05-05T20:13:50.728Z,4.40
2023-05-05T20:16:17.852Z,3.78
2023-05-05T20:18:44.585Z,3.40
2023-05-05T20:21:11.510Z,3.22
2023-05-05T20:23:38.228Z,3.45
2023-05-05T20:26:05.007Z,3.63
2023-05-05T20:28:31.828Z,3.85
2023-05-05T20:31:00.397Z,3.30
2023-05-05T20:33:28.680Z,3.70
2023-05-05T20:35:55.432Z,4.75
2023-05-05T20:38:22.109Z,3.33
2023-05-05T20:40:49.972Z,3.55
2023-05-05T20:43:16.644Z,3.95
2023-05-05T20:45:43.415Z,3.33
2023-05-05T20:48:11.314Z,2.88
2023-05-05T20:50:38.669Z,3.65
2023-05-05T20:53:07.917Z,3.50
2023-05-05T20:55:34.888Z,3.72
2023-05-05T20:58:01.675Z,3.40
2023-05-05T21:00:28.364Z,3.55
2023-05-05T21:02:56.775Z,3.70
2023-05-05T21:05:24.145Z,3.50
2023-05-05T21:07:53.598Z,3.95
2023-05-05T21:10:20.397Z,3.85
2023-05-05T21:12:47.156Z,3.67
2023-05-05T21:15:13.889Z,3.65
2023-05-05T21:17:40.773Z,3.03
2023-05-05T21:20:08.613Z,3.55
2023-05-05T21:22:35.502Z,3.97
2023-05-05T21:25:12.303Z,3.58
2023-05-05T21:27:39.052Z,3.50
2023-05-05T21:30:08.625Z,3.00
2023-05-05T21:32:39.105Z,2.95
2023-05-05T21:35:07.824Z,3.38
2023-05-05T21:37:36.281Z,3.58
2023-05-05T21:40:03.079Z,3.30
2023-05-05T21:42:30.926Z,3.50
2023-05-05T21:44:57.641Z,3.65
2023-05-05T21:47:24.354Z,3.78
2023-05-05T21:49:51.014Z,3.35
2023-05-05T21:52:17.712Z,3.03
2023-05-05T21:54:44.681Z,3.40
2023-05-05T21:57:11.375Z,3.70
2023-05-05T21:59:38.053Z,3.58
2023-05-05T22:02:04.738Z,3.42
2023-05-05T22:04:31.407Z,3.30
2023-05-05T22:06:58.217Z,3.10
2023-05-05T22:09:24.911Z,3.40
2023-05-05T22:11:51.643Z,3.30
2023-05-05T22:14:18.525Z,3.55
2023-05-05T22:16:45.413Z,3.13
2023-05-05T22:19:12.136Z,3.17
2023-05-05T22:21:39.014Z,3.63
2023-05-05T22:24:07.072Z,3.80
2023-05-05T22:26:34.055Z,3.05
2023-05-05T22:29:00.950Z,4.35
2023-05-05T22:31:29.236Z,3.80
2023-05-05T22:33:56.048Z,3.83
2023-05-05T22:36:22.905Z,3.50
2023-05-05T22:38:49.795Z,3.83
2023-05-05T22:41:16.473Z,3.30
2023-05-05T22:43:43.161Z,3.35
2023-05-05T22:46:10.150Z,3.95
2023-05-05T22:48:36.871Z,3.50
2023-05-05T22:51:03.691Z,3.30
2023-05-05T22:53:30.718Z,3.47
2023-05-05T22:55:58.443Z,4.13
2023-05-05T22:58:25.653Z,3.40
2023-05-05T23:00:52.209Z,3.25
2023-05-05T23:03:18.725Z,3.35
2023-05-05T23:05:45.225Z,4.15
2023-05-05T23:08:11.689Z,3.75
2023-05-05T23:10:38.180Z,3.78
2023-05-05T23:13:04.727Z,3.38
2023-05-05T23:15:31.400Z,3.20
2023-05-05T23:17:57.941Z,4.35
2023-05-05T23:20:24.430Z,3.67
2023-05-05T23:22:50.883Z,3.65
2023-05-05T23:25:17.560Z,3.65
2023-05-05T23:27:44.102Z,4.53
2023-05-05T23:30:11.094Z,3.58
2023-05-05T23:32:37.817Z,3.80
2023-05-05T23:35:04.809Z,3.45
2023-05-05T23:37:31.467Z,3.42
2023-05-05T23:39:58.105Z,3.10
2023-05-05T23:42:24.623Z,3.20
2023-05-05T23:44:51.207Z,3.13
2023-05-05T23:47:17.840Z,3.92
2023-05-05T23:49:44.514Z,3.33
2023-05-05T23:52:11.192Z,3.35
2023-05-05T23:54:37.659Z,3.88
2023-05-05T23:57:04.188Z,3.25
2023-05-05T23:59:30.691Z,3.47
